createdAt,value
2024-04-30T00:01:07.027Z,23.58
2024-04-30T00:03:43.001Z,23.58
2024-04-30T00:06:10.947Z,23.58
2024-04-30T00:08:41.013Z,23.58
2024-04-30T00:11:08.329Z,23.59
2024-04-30T00:13:38.323Z,23.59
2024-04-30T00:16:06.011Z,23.59
2024-04-30T00:18:36.198Z,23.58
2024-04-30T00:21:06.152Z,23.58
2024-04-30T00:23:36.575Z,23.59
2024-04-30T00:26:04.041Z,23.59
2024-04-30T00:28:34.352Z,23.59
2024-04-30T00:31:01.679Z,23.59
2024-04-30T00:33:31.736Z,23.60
2024-04-30T00:35:59.423Z,23.61
2024-04-30T00:38:33.246Z,23.61
2024-04-30T00:41:00.895Z,23.62
2024-04-30T00:43:31.012Z,23.62
2024-04-30T00:45:58.317Z,23.63
2024-04-30T00:48:28.481Z,23.62
2024-04-30T00:50:55.856Z,23.63
2024-04-30T00:53:25.864Z,23.63
2024-04-30T00:55:55.982Z,23.63
2024-04-30T00:58:26.410Z,23.62
2024-04-30T01:00:53.803Z,23.62
2024-04-30T01:03:23.877Z,23.63
2024-04-30T01:05:51.323Z,23.63
2024-04-30T01:08:21.598Z,23.62
2024-04-30T01:10:49.082Z,23.62
2024-04-30T01:13:22.276Z,23.63
2024-04-30T01:15:50.155Z,23.63
2024-04-30T01:18:20.410Z,23.62
2024-04-30T01:20:47.674Z,23.63
2024-04-30T01:23:20.373Z,23.63
2024-04-30T01:25:47.827Z,23.64
2024-04-30T01:28:18.112Z,23.65
2024-04-30T01:30:46.156Z,23.64
2024-04-30T01:33:16.637Z,23.64
2024-04-30T01:35:43.969Z,23.65
2024-04-30T01:38:14.594Z,23.65
2024-04-30T01:40:44.781Z,23.67
2024-04-30T01:43:14.787Z,23.67
2024-04-30T01:45:42.117Z,23.67
2024-04-30T01:48:12.548Z,23.67
2024-04-30T01:50:39.904Z,23.67
2024-04-30T01:53:09.895Z,23.67
2024-04-30T01:55:37.578Z,23.65
2024-04-30T01:58:10.589Z,23.65
2024-04-30T02:00:37.953Z,23.66
2024-04-30T02:03:08.360Z,23.65
2024-04-30T02:05:35.840Z,23.65
2024-04-30T02:08:05.979Z,23.66
2024-04-30T02:10:33.276Z,23.66
2024-04-30T02:13:03.276Z,23.66
2024-04-30T02:15:33.674Z,23.67
2024-04-30T02:18:04.077Z,23.67
2024-04-30T02:20:31.423Z,23.67
2024-04-30T02:23:01.428Z,23.67
2024-04-30T02:25:29.342Z,23.67
2024-04-30T02:27:59.458Z,23.68
2024-04-30T02:30:44.797Z,23.67
2024-04-30T02:33:36.569Z,23.67
2024-04-30T02:36:08.594Z,23.68
2024-04-30T02:38:35.885Z,23.67
2024-04-30T02:41:05.948Z,23.67
2024-04-30T02:43:35.940Z,23.67
2024-04-30T02:46:03.347Z,23.66
2024-04-30T02:48:36.297Z,23.66
2024-04-30T02:51:04.587Z,23.67
2024-04-30T02:53:34.770Z,23.67
2024-04-30T02:56:02.433Z,23.66
2024-04-30T02:58:32.434Z,23.67
2024-04-30T03:01:00.251Z,23.67
2024-04-30T03:03:31.329Z,23.67
2024-04-30T03:06:01.572Z,23.67
2024-04-30T03:08:31.610Z,23.66
2024-04-30T03:11:01.231Z,23.65
2024-04-30T03:13:31.394Z,23.65
2024-04-30T03:15:58.816Z,23.65
2024-04-30T03:18:29.205Z,23.65
2024-04-30T03:20:56.480Z,23.67
2024-04-30T03:23:29.549Z,23.64
2024-04-30T03:25:56.930Z,23.65
2024-04-30T03:28:26.924Z,23.65
2024-04-30T03:30:55.493Z,23.64
2024-04-30T03:33:25.664Z,23.64
2024-04-30T03:35:53.020Z,23.64
2024-04-30T03:38:23.043Z,23.63
2024-04-30T03:40:56.234Z,23.63
2024-04-30T03:43:26.550Z,23.63
2024-04-30T03:45:56.516Z,23.63
2024-04-30T03:48:26.611Z,23.63
2024-04-30T03:50:57.302Z,23.62
2024-04-30T03:53:24.711Z,23.64
2024-04-30T03:55:57.417Z,23.64
2024-04-30T03:58:24.787Z,23.64
2024-04-30T04:00:55.125Z,23.64
2024-04-30T04:03:22.791Z,23.64
2024-04-30T04:05:52.810Z,23.65
2024-04-30T04:08:20.230Z,23.65
2024-04-30T04:11:11.012Z,23.64
2024-04-30T04:13:59.313Z,23.65
2024-04-30T04:16:29.602Z,23.63
2024-04-30T04:18:59.741Z,23.64
2024-04-30T04:21:30.192Z,23.64
2024-04-30T04:24:00.385Z,23.63
2024-04-30T04:26:28.026Z,23.63
2024-04-30T04:29:01.123Z,23.64
2024-04-30T04:31:31.588Z,23.64
2024-04-30T04:33:59.330Z,23.64
2024-04-30T04:36:29.312Z,23.64
2024-04-30T04:38:56.995Z,23.65
2024-04-30T04:41:27.012Z,23.65
2024-04-30T04:43:54.384Z,23.65
2024-04-30T04:46:27.268Z,23.66
2024-04-30T04:48:59.478Z,23.65
2024-04-30T04:51:29.731Z,23.67
2024-04-30T04:53:57.544Z,23.66
2024-04-30T04:56:27.825Z,23.66
2024-04-30T04:58:55.171Z,23.65
2024-04-30T05:01:28.471Z,23.65
2024-04-30T05:03:56.500Z,23.65
2024-04-30T05:06:27.035Z,23.67
2024-04-30T05:08:54.751Z,23.67
2024-04-30T05:11:24.842Z,23.67
2024-04-30T05:13:52.539Z,23.68
2024-04-30T05:16:22.882Z,23.69
2024-04-30T05:18:53.254Z,23.70
2024-04-30T05:21:23.719Z,23.72
2024-04-30T05:23:50.976Z,23.74
2024-04-30T05:26:21.399Z,23.75
2024-04-30T05:28:48.663Z,23.78
2024-04-30T05:31:19.033Z,23.80
2024-04-30T05:33:46.792Z,23.83
2024-04-30T05:36:19.769Z,23.86
2024-04-30T05:38:47.779Z,23.89
2024-04-30T05:41:17.946Z,23.92
2024-04-30T05:43:45.410Z,23.94
2024-04-30T05:46:15.504Z,23.96
2024-04-30T05:48:42.786Z,23.96
2024-04-30T05:51:12.827Z,23.99
2024-04-30T05:53:43.172Z,24.02
2024-04-30T05:56:13.258Z,24.03
2024-04-30T05:58:40.692Z,24.05
2024-04-30T06:01:10.825Z,24.05
2024-04-30T06:03:38.176Z,24.04
2024-04-30T06:06:11.887Z,24.05
2024-04-30T06:08:41.573Z,24.07
2024-04-30T06:11:15.086Z,24.08
2024-04-30T06:13:44.552Z,24.09
2024-04-30T06:16:14.532Z,24.10
2024-04-30T06:18:42.032Z,23.96
2024-04-30T06:21:12.316Z,23.83
2024-04-30T06:23:39.620Z,23.77
2024-04-30T06:26:09.587Z,23.70
2024-04-30T06:28:39.835Z,23.65
2024-04-30T06:31:09.984Z,23.61
2024-04-30T06:33:37.415Z,23.57
2024-04-30T06:36:08.439Z,23.56
2024-04-30T06:38:35.697Z,23.62
2024-04-30T06:41:05.762Z,23.72
2024-04-30T06:43:33.104Z,23.68
2024-04-30T06:46:06.070Z,23.49
2024-04-30T06:48:33.559Z,23.35
2024-04-30T06:51:03.969Z,23.32
2024-04-30T06:53:31.271Z,23.31
2024-04-30T06:56:01.244Z,23.30
2024-04-30T06:58:28.578Z,23.28
2024-04-30T07:00:58.708Z,23.27
2024-04-30T07:03:29.058Z,23.27
2024-04-30T07:05:59.024Z,23.25
2024-04-30T07:08:26.373Z,23.26
2024-04-30T07:10:59.177Z,23.26
2024-04-30T07:13:28.957Z,23.27
2024-04-30T07:15:58.978Z,23.29
2024-04-30T07:18:29.289Z,23.28
2024-04-30T07:20:59.301Z,23.29
2024-04-30T07:23:27.496Z,23.29
2024-04-30T07:25:57.418Z,23.29
2024-04-30T07:28:25.706Z,23.29
2024-04-30T07:30:55.931Z,23.28
2024-04-30T07:33:23.497Z,23.28
2024-04-30T07:35:56.099Z,23.26
2024-04-30T07:38:23.384Z,23.26
2024-04-30T07:40:53.856Z,23.25
2024-04-30T07:43:21.189Z,23.24
2024-04-30T07:45:51.104Z,23.24
2024-04-30T07:48:18.990Z,23.24
2024-04-30T07:50:48.931Z,23.24
2024-04-30T07:53:19.059Z,23.29
2024-04-30T07:55:49.219Z,23.32
2024-04-30T07:58:16.527Z,23.34
2024-04-30T08:00:47.314Z,23.37
2024-04-30T08:03:14.810Z,23.39
2024-04-30T08:05:45.019Z,23.40
2024-04-30T08:08:12.872Z,23.41
2024-04-30T08:10:45.707Z,23.41
2024-04-30T08:13:13.072Z,23.43
2024-04-30T08:15:43.568Z,23.42
2024-04-30T08:18:14.366Z,23.43
2024-04-30T08:20:41.888Z,23.43
2024-04-30T08:23:12.210Z,23.44
2024-04-30T08:25:39.554Z,23.42
2024-04-30T08:28:14.162Z,23.44
2024-04-30T08:30:42.093Z,23.43
2024-04-30T08:33:12.671Z,23.42
2024-04-30T08:35:40.652Z,23.42
2024-04-30T08:38:11.743Z,23.42
2024-04-30T08:40:41.842Z,23.41
2024-04-30T08:43:12.287Z,23.41
2024-04-30T08:45:42.735Z,23.41
2024-04-30T08:48:10.192Z,23.40
2024-04-30T08:53:09.710Z,23.39
2024-04-30T08:55:39.925Z,23.38
2024-04-30T08:58:07.671Z,23.38
2024-04-30T09:00:40.375Z,23.38
2024-04-30T09:03:07.679Z,23.37
2024-04-30T09:05:37.803Z,23.36
2024-04-30T09:08:05.666Z,23.36
2024-04-30T09:10:37.622Z,23.35
2024-04-30T09:13:05.324Z,23.34
2024-04-30T09:15:35.385Z,23.34
2024-04-30T09:18:11.802Z,23.33
2024-04-30T09:20:48.197Z,23.32
2024-04-30T09:23:28.303Z,23.32
2024-04-30T09:25:58.403Z,23.31
2024-04-30T09:28:27.215Z,23.31
2024-04-30T09:31:00.479Z,23.29
2024-04-30T09:33:30.836Z,23.29
2024-04-30T09:36:07.827Z,23.28
2024-04-30T09:38:37.893Z,23.27
2024-04-30T09:41:08.037Z,23.27
2024-04-30T09:43:35.395Z,23.26
2024-04-30T09:46:05.699Z,23.26
2024-04-30T09:48:36.206Z,23.24
2024-04-30T09:51:07.653Z,23.26
2024-04-30T09:53:35.272Z,23.25
2024-04-30T09:56:09.560Z,23.24
2024-04-30T09:58:37.870Z,23.23
2024-04-30T10:01:08.764Z,23.20
2024-04-30T10:03:40.385Z,23.18
2024-04-30T10:06:10.908Z,23.16
2024-04-30T10:08:38.481Z,23.18
2024-04-30T10:11:08.958Z,23.17
2024-04-30T10:13:36.433Z,23.18
2024-04-30T10:16:16.133Z,23.18
2024-04-30T10:18:46.170Z,23.17
2024-04-30T10:21:16.252Z,23.17
2024-04-30T10:23:45.312Z,23.15
2024-04-30T10:26:16.114Z,23.15
2024-04-30T10:28:43.453Z,23.15
2024-04-30T10:31:14.698Z,23.16
2024-04-30T10:33:42.119Z,23.17
2024-04-30T10:36:16.176Z,23.18
2024-04-30T10:38:43.535Z,23.18
2024-04-30T10:41:13.936Z,23.18
2024-04-30T10:43:41.379Z,23.18
2024-04-30T10:46:15.785Z,23.19
2024-04-30T10:48:55.341Z,23.18
2024-04-30T10:51:29.211Z,23.17
2024-04-30T10:53:58.596Z,23.19
2024-04-30T10:56:28.696Z,23.17
2024-04-30T10:58:57.091Z,23.18
2024-04-30T11:01:27.496Z,23.18
2024-04-30T11:04:05.121Z,23.16
2024-04-30T11:06:44.659Z,23.17
2024-04-30T11:09:12.685Z,23.17
2024-04-30T11:12:01.768Z,23.16
2024-04-30T11:14:29.053Z,23.17
2024-04-30T11:16:59.494Z,23.17
2024-04-30T11:19:26.890Z,23.16
2024-04-30T11:21:59.854Z,23.16
2024-04-30T11:24:27.282Z,23.18
2024-04-30T11:26:57.330Z,23.17
2024-04-30T11:29:34.936Z,23.16
2024-04-30T11:32:10.175Z,23.17
2024-04-30T11:34:37.830Z,23.16
2024-04-30T11:37:10.643Z,23.16
2024-04-30T11:39:38.312Z,23.16
2024-04-30T11:42:18.121Z,23.16
2024-04-30T11:44:51.528Z,23.15
2024-04-30T11:47:21.803Z,23.16
2024-04-30T11:49:49.212Z,23.15
2024-04-30T11:52:22.393Z,23.15
2024-04-30T11:54:49.827Z,23.15
2024-04-30T11:57:20.268Z,23.16
2024-04-30T11:59:47.580Z,23.15
2024-04-30T12:02:17.766Z,23.16
2024-04-30T12:04:45.353Z,23.16
2024-04-30T12:07:15.458Z,23.16
2024-04-30T12:09:45.426Z,23.15
2024-04-30T12:12:15.364Z,23.16
2024-04-30T12:14:43.121Z,23.16
2024-04-30T12:17:13.255Z,23.16
2024-04-30T12:19:40.655Z,23.17
2024-04-30T12:22:10.770Z,23.18
2024-04-30T12:24:38.217Z,23.17
2024-04-30T12:27:11.239Z,23.17
2024-04-30T12:29:39.703Z,23.17
2024-04-30T12:32:11.778Z,23.18
2024-04-30T12:34:39.458Z,23.18
2024-04-30T12:37:11.147Z,23.18
2024-04-30T12:39:38.796Z,23.18
2024-04-30T12:42:11.563Z,23.18
2024-04-30T12:44:41.218Z,23.19
2024-04-30T12:47:11.350Z,23.19
2024-04-30T12:49:38.855Z,23.20
2024-04-30T12:52:09.303Z,23.20
2024-04-30T12:54:36.702Z,23.20
2024-04-30T12:57:07.283Z,23.21
2024-04-30T12:59:37.556Z,23.19
2024-04-30T13:02:07.767Z,23.20
2024-04-30T13:04:35.093Z,23.22
2024-04-30T13:07:05.384Z,23.21
2024-04-30T13:09:32.998Z,23.21
2024-04-30T13:12:02.958Z,23.21
2024-04-30T13:14:30.256Z,23.22
2024-04-30T13:17:03.268Z,23.22
2024-04-30T13:19:30.589Z,23.22
2024-04-30T13:22:00.631Z,23.23
2024-04-30T13:24:27.982Z,23.23
2024-04-30T13:26:58.297Z,23.25
2024-04-30T13:29:25.714Z,23.24
2024-04-30T13:31:56.055Z,23.25
2024-04-30T13:34:28.401Z,23.26
2024-04-30T13:36:58.531Z,23.25
2024-04-30T13:39:27.393Z,23.25
2024-04-30T13:41:58.277Z,23.26
2024-04-30T13:44:26.019Z,23.26
2024-04-30T13:46:58.070Z,23.27
2024-04-30T13:49:28.283Z,23.27
2024-04-30T13:51:58.671Z,23.28
2024-04-30T13:54:25.971Z,23.28
2024-04-30T13:56:56.854Z,23.29
2024-04-30T13:59:24.583Z,23.30
2024-04-30T14:01:54.615Z,23.31
2024-04-30T14:04:22.395Z,23.32
2024-04-30T14:06:56.065Z,23.32
2024-04-30T14:09:29.479Z,23.32
2024-04-30T14:11:56.763Z,23.33
2024-04-30T14:14:27.071Z,23.33
2024-04-30T14:16:54.434Z,23.34
2024-04-30T14:19:24.428Z,23.34
2024-04-30T14:21:54.692Z,23.35
2024-04-30T14:24:24.825Z,23.35
2024-04-30T14:26:52.119Z,23.36
2024-04-30T14:29:22.307Z,23.36
2024-04-30T14:31:49.803Z,23.37
2024-04-30T14:34:19.946Z,23.37
2024-04-30T14:36:47.380Z,23.38
2024-04-30T14:39:20.370Z,23.38
2024-04-30T14:41:48.099Z,23.38
2024-04-30T14:44:18.646Z,23.38
2024-04-30T14:46:48.811Z,23.39
2024-04-30T14:49:16.646Z,23.38
2024-04-30T14:51:46.946Z,23.39
2024-04-30T14:54:17.543Z,23.39
2024-04-30T14:56:47.590Z,23.39
2024-04-30T14:59:15.206Z,23.40
2024-04-30T15:01:45.556Z,23.40
2024-04-30T15:04:13.661Z,23.40
2024-04-30T15:06:43.764Z,23.41
2024-04-30T15:09:11.176Z,23.40
2024-04-30T15:11:44.121Z,23.41
2024-04-30T15:14:11.590Z,23.40
2024-04-30T15:16:44.005Z,23.42
2024-04-30T15:19:11.630Z,23.42
2024-04-30T15:21:44.706Z,23.42
2024-04-30T15:24:12.157Z,23.42
2024-04-30T15:26:44.919Z,23.40
2024-04-30T15:29:13.278Z,23.39
2024-04-30T15:31:43.509Z,23.38
2024-04-30T15:34:11.062Z,23.37
2024-04-30T15:36:44.474Z,23.37
2024-04-30T15:39:17.991Z,23.36
2024-04-30T15:41:48.893Z,23.36
2024-04-30T15:44:19.002Z,23.37
2024-04-30T15:46:46.520Z,23.37
2024-04-30T15:49:16.949Z,23.38
2024-04-30T15:51:44.631Z,23.36
2024-04-30T15:54:16.934Z,23.37
2024-04-30T15:56:54.101Z,23.36
2024-04-30T15:59:31.778Z,23.36
2024-04-30T16:01:59.135Z,23.34
2024-04-30T16:04:29.593Z,23.34
2024-04-30T16:06:57.052Z,23.35
2024-04-30T16:09:26.966Z,23.35
2024-04-30T16:11:54.681Z,23.35
2024-04-30T16:14:25.347Z,23.35
2024-04-30T16:16:55.854Z,23.34
2024-04-30T16:19:25.868Z,23.35
2024-04-30T16:21:54.976Z,23.35
2024-04-30T16:24:26.581Z,23.35
2024-04-30T16:26:53.915Z,23.35
2024-04-30T16:29:23.816Z,23.35
2024-04-30T16:31:51.233Z,23.35
2024-04-30T16:34:24.192Z,23.35
2024-04-30T16:36:59.709Z,23.36
2024-04-30T16:39:27.492Z,23.34
2024-04-30T16:41:57.545Z,23.34
2024-04-30T16:44:33.107Z,23.34
2024-04-30T16:47:10.552Z,23.33
2024-04-30T16:49:41.070Z,23.33
2024-04-30T16:52:11.343Z,23.32
2024-04-30T16:54:38.766Z,23.32
2024-04-30T16:57:09.250Z,23.30
2024-04-30T16:59:36.550Z,23.30
2024-04-30T17:02:10.344Z,23.29
2024-04-30T17:04:42.018Z,23.28
2024-04-30T17:07:12.508Z,23.27
2024-04-30T17:09:39.833Z,23.27
2024-04-30T17:12:10.162Z,23.26
2024-04-30T17:14:37.604Z,23.25
2024-04-30T17:17:09.104Z,23.25
2024-04-30T17:19:36.412Z,23.23
2024-04-30T17:22:09.367Z,23.22
2024-04-30T17:24:37.271Z,23.22
2024-04-30T17:27:08.183Z,23.21
2024-04-30T17:29:35.876Z,23.20
2024-04-30T17:32:06.136Z,23.19
2024-04-30T17:34:33.487Z,23.18
2024-04-30T17:37:03.598Z,23.18
2024-04-30T17:39:33.664Z,23.17
2024-04-30T17:42:04.617Z,23.16
2024-04-30T17:44:32.852Z,23.15
2024-04-30T17:47:02.795Z,23.14
2024-04-30T17:49:30.078Z,23.14
2024-04-30T17:52:00.194Z,23.14
2024-04-30T17:54:27.670Z,23.13
2024-04-30T17:57:00.951Z,23.12
2024-04-30T17:59:28.286Z,23.11
2024-04-30T18:01:58.228Z,23.10
2024-04-30T18:04:25.559Z,23.11
2024-04-30T18:06:55.673Z,23.10
2024-04-30T18:09:23.803Z,23.10
2024-04-30T18:11:55.002Z,23.10
2024-04-30T18:14:24.968Z,23.10
2024-04-30T18:16:56.607Z,23.09
2024-04-30T18:19:25.069Z,23.08
2024-04-30T18:21:55.402Z,23.08
2024-04-30T18:24:22.830Z,23.08
2024-04-30T18:26:53.036Z,23.08
2024-04-30T18:29:20.333Z,23.08
2024-04-30T18:31:56.381Z,23.07
2024-04-30T18:34:24.032Z,23.06
2024-04-30T18:36:54.189Z,23.07
2024-04-30T18:39:21.642Z,23.06
2024-04-30T18:41:51.697Z,23.05
2024-04-30T18:44:19.063Z,23.05
2024-04-30T18:46:49.382Z,23.04
2024-04-30T18:49:22.545Z,23.03
2024-04-30T18:51:52.131Z,23.03
2024-04-30T18:54:22.768Z,23.03
2024-04-30T18:56:52.600Z,23.01
2024-04-30T18:59:24.216Z,23.02
2024-04-30T19:01:51.536Z,23.01
2024-04-30T19:04:24.549Z,23.01
2024-04-30T19:06:52.080Z,23.00
2024-04-30T19:09:22.768Z,23.00
2024-04-30T19:11:50.217Z,22.99
2024-04-30T19:14:20.390Z,22.99
2024-04-30T19:16:48.363Z,22.98
2024-04-30T19:19:21.260Z,22.97
2024-04-30T19:21:51.726Z,22.96
2024-04-30T19:24:22.833Z,22.96
2024-04-30T19:26:50.291Z,22.95
2024-04-30T19:29:21.201Z,22.95
2024-04-30T19:31:48.920Z,22.94
2024-04-30T19:34:19.111Z,22.94
2024-04-30T19:36:46.584Z,22.93
2024-04-30T19:39:19.229Z,22.92
2024-04-30T19:41:46.943Z,22.91
2024-04-30T19:44:16.995Z,22.92
2024-04-30T19:46:44.297Z,22.91
2024-04-30T19:49:14.716Z,22.90
2024-04-30T19:51:42.459Z,22.89
2024-04-30T19:54:12.502Z,22.88
2024-04-30T19:56:42.610Z,22.87
2024-04-30T19:59:12.923Z,22.87
2024-04-30T20:01:40.344Z,22.86
2024-04-30T20:04:12.554Z,22.85
2024-04-30T20:06:42.009Z,22.85
2024-04-30T20:09:12.087Z,22.85
2024-04-30T20:11:42.112Z,22.83
2024-04-30T20:14:14.024Z,22.83
2024-04-30T20:16:41.970Z,22.83
2024-04-30T20:19:11.900Z,22.83
2024-04-30T20:21:39.267Z,22.81
2024-04-30T20:24:11.602Z,22.81
2024-04-30T20:26:41.706Z,22.81
2024-04-30T20:29:12.001Z,22.80
2024-04-30T20:31:41.596Z,22.79
2024-04-30T20:34:11.687Z,22.79
2024-04-30T20:36:39.070Z,22.79
2024-04-30T20:39:09.013Z,22.78
2024-04-30T20:41:36.846Z,22.76
2024-04-30T20:44:09.500Z,22.75
2024-04-30T20:46:39.469Z,22.75
2024-04-30T20:49:11.337Z,22.75
2024-04-30T20:51:42.889Z,22.74
2024-04-30T20:54:12.912Z,22.74
2024-04-30T20:56:40.933Z,22.73
2024-04-30T20:59:15.064Z,22.72
2024-04-30T21:01:43.418Z,22.72
2024-04-30T21:04:13.532Z,22.71
2024-04-30T21:06:41.085Z,22.71
2024-04-30T21:09:11.401Z,22.71
2024-04-30T21:11:38.770Z,22.71
2024-04-30T21:14:10.527Z,22.71
2024-04-30T21:16:40.705Z,22.70
2024-04-30T21:19:10.746Z,22.71
2024-04-30T21:21:41.458Z,22.73
2024-04-30T21:24:13.455Z,22.74
2024-04-30T21:26:41.649Z,22.77
2024-04-30T21:29:11.760Z,22.79
2024-04-30T21:31:42.136Z,22.83
2024-04-30T21:34:12.549Z,22.85
2024-04-30T21:36:44.350Z,22.88
2024-04-30T21:39:16.369Z,22.92
2024-04-30T21:41:43.792Z,22.95
2024-04-30T21:44:13.871Z,22.98
2024-04-30T21:46:44.279Z,23.02
2024-04-30T21:49:15.137Z,23.04
2024-04-30T21:51:46.128Z,23.07
2024-04-30T21:54:17.181Z,23.10
2024-04-30T21:56:44.679Z,23.13
2024-04-30T21:59:14.626Z,23.15
2024-04-30T22:01:49.260Z,23.19
2024-04-30T22:04:19.472Z,23.22
2024-04-30T22:06:47.300Z,23.23
2024-04-30T22:09:17.762Z,23.26
2024-04-30T22:11:45.394Z,23.27
2024-04-30T22:14:15.821Z,23.28
2024-04-30T22:16:43.507Z,23.32
2024-04-30T22:19:16.880Z,23.34
2024-04-30T22:21:47.397Z,23.36
2024-04-30T22:24:17.591Z,23.38
2024-04-30T22:26:44.894Z,23.40
2024-04-30T22:29:15.892Z,23.42
2024-04-30T22:31:43.345Z,23.44
2024-04-30T22:34:16.384Z,23.45
2024-04-30T22:36:44.182Z,23.49
2024-04-30T22:39:14.247Z,23.50
2024-04-30T22:41:44.351Z,23.52
2024-04-30T22:44:11.620Z,23.53
2024-04-30T22:46:41.613Z,23.54
2024-04-30T22:49:08.956Z,23.55
2024-04-30T22:51:41.664Z,23.57
2024-04-30T22:54:09.050Z,23.59
2024-04-30T22:56:39.470Z,23.59
2024-04-30T22:59:06.718Z,23.61
2024-04-30T23:01:36.871Z,23.61
2024-04-30T23:04:04.467Z,23.61
2024-04-30T23:06:34.769Z,23.63
2024-04-30T23:09:04.717Z,23.65
2024-04-30T23:11:34.732Z,23.65
2024-04-30T23:14:02.019Z,23.67
2024-04-30T23:16:32.552Z,23.68
2024-04-30T23:18:59.847Z,23.69
2024-04-30T23:21:29.950Z,23.71
2024-04-30T23:23:57.281Z,23.72
2024-04-30T23:26:30.565Z,23.73
2024-04-30T23:28:58.123Z,23.74
2024-04-30T23:31:28.194Z,23.75
2024-04-30T23:33:55.548Z,23.76
2024-04-30T23:36:25.514Z,23.77
2024-04-30T23:38:52.842Z,23.78
2024-04-30T23:41:22.748Z,23.79
2024-04-30T23:43:52.680Z,23.79
2024-04-30T23:46:22.785Z,23.79
2024-04-30T23:48:50.194Z,23.80
2024-04-30T23:51:20.203Z,23.79
2024-04-30T23:53:47.530Z,23.80
2024-04-30T23:56:17.604Z,23.80
2024-04-30T23:58:46.029Z,23.81
